Time;durP1;ratioP1;P1;durP2;ratioP2;P2;SDS_P1;SDS_P2;PMS_P1;PMS_P2;Temp;Humidity;BMP_temperature;BMP_pressure;BME280_temperature;BME280_humidity;BME280_pressure;Samples;Min_cycle;Max_cycle;Signal;HPM_P1;HPM_P2
2022/09/05 00:01:05;;;;;;;1.70;1.40;;;;;;;;;;5110719;28;20727;-79
2022/09/05 00:03:38;;;;;;;1.50;1.40;;;;;;;;;;5110874;28;20238;-79
2022/09/05 00:06:07;;;;;;;1.40;1.30;;;;;;;;;;5110914;28;20195;-79
2022/09/05 00:08:43;;;;;;;1.10;0.97;;;;;;;;;;5110929;28;20291;-79
2022/09/05 00:11:12;;;;;;;1.70;1.60;;;;;;;;;;5110574;28;20226;-80
2022/09/05 00:13:42;;;;;;;1.43;1.33;;;;;;;;;;5110921;28;20264;-79
2022/09/05 00:16:28;;;;;;;1.70;1.30;;;;;;;;;;5110950;28;20199;-80
2022/09/05 00:19:05;;;;;;;1.60;1.50;;;;;;;;;;5110353;28;20203;-79
2022/09/05 00:21:44;;;;;;;2.17;2.07;;;;;;;;;;5110522;28;20230;-79
2022/09/05 00:24:20;;;;;;;1.93;1.70;;;;;;;;;;5110332;28;20203;-80
2022/09/05 00:26:55;;;;;;;2.10;1.50;;;;;;;;;;5110560;28;20219;-80
2022/09/05 00:29:28;;;;;;;2.20;2.00;;;;;;;;;;5110049;28;21386;-79
2022/09/05 00:32:00;;;;;;;1.63;1.53;;;;;;;;;;5110454;28;20192;-79
2022/09/05 00:34:40;;;;;;;1.80;1.70;;;;;;;;;;5109970;28;20746;-80
2022/09/05 00:37:08;;;;;;;1.67;1.57;;;;;;;;;;5110490;28;20198;-80
2022/09/05 00:39:37;;;;;;;2.03;1.93;;;;;;;;;;5110300;28;20199;-79
2022/09/05 00:42:08;;;;;;;1.97;1.83;;;;;;;;;;5110126;28;20226;-79
2022/09/05 00:44:52;;;;;;;1.40;1.30;;;;;;;;;;5110230;28;20210;-80
2022/09/05 00:47:27;;;;;;;1.70;1.60;;;;;;;;;;5114392;28;20622;-79
2022/09/05 00:49:59;;;;;;;1.73;1.63;;;;;;;;;;5113985;28;20225;-79
2022/09/05 00:52:30;;;;;;;1.43;1.33;;;;;;;;;;5114312;28;20199;-80
2022/09/05 00:55:11;;;;;;;1.77;1.60;;;;;;;;;;5114252;28;20573;-79
2022/09/05 00:57:57;;;;;;;1.33;1.33;;;;;;;;;;5114098;28;20204;-79
2022/09/05 01:00:25;;;;;;;1.27;1.23;;;;;;;;;;5113405;28;20230;-80
2022/09/05 01:03:08;;;;;;;1.60;1.40;;;;;;;;;;5113638;28;20199;-80
2022/09/05 01:05:54;;;;;;;1.30;1.20;;;;;;;;;;5114128;28;20604;-80
2022/09/05 01:08:45;;;;;;;1.67;1.57;;;;;;;;;;5113813;28;20203;-80
2022/09/05 01:11:17;;;;;;;2.03;1.83;;;;;;;;;;5103013;28;20206;-80
2022/09/05 01:13:47;;;;;;;1.60;1.50;;;;;;;;;;5113586;28;20799;-79
2022/09/05 01:16:22;;;;;;;1.73;1.63;;;;;;;;;;5113695;28;20199;-80
2022/09/05 01:18:56;;;;;;;1.70;1.60;;;;;;;;;;5113430;28;20203;-80
2022/09/05 01:21:56;;;;;;;1.53;1.43;;;;;;;;;;5112960;28;20665;-80
2022/09/05 01:24:42;;;;;;;1.57;1.47;;;;;;;;;;5107861;28;20674;-80
2022/09/05 01:27:40;;;;;;;1.40;1.30;;;;;;;;;;5113787;28;20199;-80
2022/09/05 01:30:09;;;;;;;1.63;1.53;;;;;;;;;;5092236;28;20260;-79
2022/09/05 01:32:41;;;;;;;1.53;1.43;;;;;;;;;;5113789;28;20714;-79
2022/09/05 01:35:50;;;;;;;1.77;1.50;;;;;;;;;;5100328;28;20279;-79
2022/09/05 01:38:23;;;;;;;1.47;1.37;;;;;;;;;;5112852;28;20221;-80
2022/09/05 01:41:02;;;;;;;2.90;1.60;;;;;;;;;;5113319;28;20233;-80
2022/09/05 01:43:42;;;;;;;1.67;1.57;;;;;;;;;;5113109;28;20209;-80
2022/09/05 01:46:22;;;;;;;1.57;1.47;;;;;;;;;;5113010;28;20229;-79
2022/09/05 01:48:54;;;;;;;1.63;1.53;;;;;;;;;;5112873;28;20195;-79
2022/09/05 01:51:29;;;;;;;1.60;1.50;;;;;;;;;;5112852;28;20207;-79
2022/09/05 01:54:05;;;;;;;1.50;1.40;;;;;;;;;;5112817;28;20202;-79
2022/09/05 01:56:41;;;;;;;1.50;1.40;;;;;;;;;;5112823;28;20213;-79
2022/09/05 01:59:20;;;;;;;1.20;1.10;;;;;;;;;;5112309;28;20647;-80
2022/09/05 02:01:58;;;;;;;1.60;1.50;;;;;;;;;;5112752;28;20707;-80
2022/09/05 02:04:57;;;;;;;1.63;1.40;;;;;;;;;;5112613;28;20280;-79
2022/09/05 02:07:35;;;;;;;1.30;1.20;;;;;;;;;;5107865;28;20210;-79
2022/09/05 02:10:21;;;;;;;1.33;1.23;;;;;;;;;;5112404;28;20203;-79
2022/09/05 02:12:51;;;;;;;1.43;1.37;;;;;;;;;;5112888;28;20587;-80
2022/09/05 02:15:24;;;;;;;1.33;1.23;;;;;;;;;;5112215;28;20558;-79
2022/09/05 02:17:52;;;;;;;1.70;1.60;;;;;;;;;;5112503;28;20206;-80
2022/09/05 02:20:23;;;;;;;1.67;1.53;;;;;;;;;;5112344;28;20227;-79
2022/09/05 02:22:59;;;;;;;1.60;1.50;;;;;;;;;;5112383;28;20209;-80
2022/09/05 02:25:30;;;;;;;1.30;1.20;;;;;;;;;;5112018;28;20599;-79
2022/09/05 02:28:01;;;;;;;1.10;1.10;;;;;;;;;;5112633;28;20200;-79
2022/09/05 02:30:34;;;;;;;1.90;1.70;;;;;;;;;;5112218;28;20210;-80
2022/09/05 02:33:09;;;;;;;1.50;1.40;;;;;;;;;;5112192;28;20202;-80
2022/09/05 02:35:44;;;;;;;1.43;1.33;;;;;;;;;;5112068;28;20255;-80
2022/09/05 02:38:15;;;;;;;2.13;2.03;;;;;;;;;;5112288;28;20209;-81
2022/09/05 02:40:45;;;;;;;1.73;1.63;;;;;;;;;;5111916;28;20225;-81
2022/09/05 02:43:19;;;;;;;1.63;1.50;;;;;;;;;;5112010;28;20244;-81
2022/09/05 02:45:55;;;;;;;1.23;1.13;;;;;;;;;;5111845;28;20199;-81
2022/09/05 02:48:28;;;;;;;1.57;1.47;;;;;;;;;;5112002;28;20202;-81
2022/09/05 02:51:06;;;;;;;1.50;1.40;;;;;;;;;;5111961;28;20199;-81
2022/09/05 02:53:34;;;;;;;2.80;1.73;;;;;;;;;;5111475;28;20198;-81
2022/09/05 02:56:20;;;;;;;0.90;0.90;;;;;;;;;;5112147;28;20220;-81
2022/09/05 02:59:00;;;;;;;1.20;1.20;;;;;;;;;;5111451;28;20222;-81
2022/09/05 03:01:45;;;;;;;1.33;1.23;;;;;;;;;;5111059;28;20228;-80
2022/09/05 03:04:24;;;;;;;1.53;1.33;;;;;;;;;;5111846;28;20207;-81
2022/09/05 03:07:04;;;;;;;1.50;1.30;;;;;;;;;;5111516;28;20206;-80
2022/09/05 03:09:40;;;;;;;1.67;1.57;;;;;;;;;;5110792;28;20681;-80
2022/09/05 03:12:40;;;;;;;1.10;1.10;;;;;;;;;;5111524;28;20217;-80
2022/09/05 03:15:44;;;;;;;1.30;1.20;;;;;;;;;;5101285;28;20210;-80
2022/09/05 03:19:02;;;;;;;1.40;1.30;;;;;;;;;;5097946;28;20201;-80
2022/09/05 03:21:48;;;;;;;1.47;1.37;;;;;;;;;;5111220;28;20261;-80
2022/09/05 03:24:47;;;;;;;1.77;1.63;;;;;;;;;;5110725;28;20217;-80
2022/09/05 03:27:50;;;;;;;1.77;1.67;;;;;;;;;;5111310;28;20213;-80
2022/09/05 03:30:18;;;;;;;1.53;1.43;;;;;;;;;;5100319;28;20206;-80
2022/09/05 03:33:12;;;;;;;1.50;1.40;;;;;;;;;;5110545;28;20201;-80
2022/09/05 03:36:29;;;;;;;1.60;1.50;;;;;;;;;;5110977;28;20206;-80
2022/09/05 03:39:34;;;;;;;2.00;1.83;;;;;;;;;;5110642;28;20619;-80
2022/09/05 03:42:25;;;;;;;1.23;1.20;;;;;;;;;;5098158;28;20254;-80
2022/09/05 03:45:23;;;;;;;1.37;1.27;;;;;;;;;;5108162;28;20209;-80
2022/09/05 03:48:03;;;;;;;1.27;1.17;;;;;;;;;;5110653;28;20202;-80
2022/09/05 03:50:38;;;;;;;1.60;1.50;;;;;;;;;;5111090;28;20198;-80
2022/09/05 03:53:22;;;;;;;1.30;1.20;;;;;;;;;;5092386;28;20262;-80
2022/09/05 03:56:05;;;;;;;1.47;1.37;;;;;;;;;;5093527;28;20700;-78
2022/09/05 03:58:54;;;;;;;1.30;1.20;;;;;;;;;;5096359;28;20208;-77
2022/09/05 04:01:24;;;;;;;1.63;1.50;;;;;;;;;;5110441;28;20226;-78
2022/09/05 04:03:53;;;;;;;1.23;1.13;;;;;;;;;;5110331;28;20202;-79
2022/09/05 04:06:26;;;;;;;1.77;1.37;;;;;;;;;;5110365;28;20256;-79
2022/09/05 04:09:01;;;;;;;1.30;1.20;;;;;;;;;;5110632;28;20228;-79
2022/09/05 04:11:34;;;;;;;1.70;1.60;;;;;;;;;;5105215;28;20207;-79
2022/09/05 04:14:03;;;;;;;1.27;1.17;;;;;;;;;;5101643;28;20193;-78
2022/09/05 04:16:32;;;;;;;2.00;1.27;;;;;;;;;;5110378;28;20685;-78
2022/09/05 04:19:08;;;;;;;1.17;1.13;;;;;;;;;;5110454;28;20209;-78
2022/09/05 04:21:37;;;;;;;1.73;1.63;;;;;;;;;;5113445;28;20241;-78
2022/09/05 04:24:09;;;;;;;1.50;1.40;;;;;;;;;;5114539;28;20222;-78
2022/09/05 04:26:49;;;;;;;1.30;1.30;;;;;;;;;;5114795;28;20245;-79
2022/09/05 04:29:21;;;;;;;1.20;1.20;;;;;;;;;;5113373;28;20231;-79
2022/09/05 04:31:55;;;;;;;1.73;1.30;;;;;;;;;;5114831;28;20703;-79
2022/09/05 04:34:42;;;;;;;1.20;1.20;;;;;;;;;;5114360;28;20204;-79
2022/09/05 04:37:10;;;;;;;1.20;1.20;;;;;;;;;;5114501;28;20203;-79
2022/09/05 04:39:38;;;;;;;1.40;1.30;;;;;;;;;;5114343;28;20198;-78
2022/09/05 04:42:18;;;;;;;1.33;1.23;;;;;;;;;;5114562;28;20227;-79
2022/09/05 04:44:48;;;;;;;1.03;1.00;;;;;;;;;;5113872;28;20707;-79
2022/09/05 04:47:20;;;;;;;1.30;1.20;;;;;;;;;;5114454;28;20210;-78
2022/09/05 04:49:51;;;;;;;1.50;1.40;;;;;;;;;;5113529;28;20262;-79
2022/09/05 04:52:49;;;;;;;1.40;1.30;;;;;;;;;;5114355;28;20208;-79
2022/09/05 04:55:21;;;;;;;1.03;1.00;;;;;;;;;;5113661;28;20758;-79
2022/09/05 04:57:51;;;;;;;1.37;1.27;;;;;;;;;;5114318;28;20207;-79
2022/09/05 05:00:24;;;;;;;1.53;1.43;;;;;;;;;;5113447;28;20231;-79
2022/09/05 05:02:52;;;;;;;1.73;1.63;;;;;;;;;;5113986;28;20700;-78
2022/09/05 05:05:21;;;;;;;1.37;1.33;;;;;;;;;;5114009;28;20203;-79
2022/09/05 05:07:52;;;;;;;2.73;1.63;;;;;;;;;;5113495;28;20203;-79
2022/09/05 05:10:25;;;;;;;1.80;1.70;;;;;;;;;;5113925;28;20207;-79
2022/09/05 05:13:08;;;;;;;1.13;1.13;;;;;;;;;;5113450;28;20562;-79
2022/09/05 05:15:44;;;;;;;1.50;1.40;;;;;;;;;;5113944;28;20210;-78
2022/09/05 05:18:18;;;;;;;1.70;1.60;;;;;;;;;;5113662;28;20198;-78
2022/09/05 05:20:53;;;;;;;1.53;1.43;;;;;;;;;;5113667;28;20264;-78
2022/09/05 05:23:30;;;;;;;1.50;1.40;;;;;;;;;;5113442;28;20566;-78
2022/09/05 05:26:02;;;;;;;1.50;1.40;;;;;;;;;;5113338;28;20207;-78
2022/09/05 05:28:41;;;;;;;1.53;1.23;;;;;;;;;;5113681;28;20196;-78
2022/09/05 05:31:10;;;;;;;1.90;1.80;;;;;;;;;;5113156;28;20297;-78
2022/09/05 05:33:38;;;;;;;1.00;1.00;;;;;;;;;;5113010;28;20597;-78
2022/09/05 05:36:07;;;;;;;1.17;1.10;;;;;;;;;;5113195;28;20199;-78
2022/09/05 05:38:40;;;;;;;1.73;1.63;;;;;;;;;;5113043;28;20203;-78
2022/09/05 05:41:17;;;;;;;1.20;1.10;;;;;;;;;;5113321;28;20203;-78
2022/09/05 05:43:45;;;;;;;1.17;1.10;;;;;;;;;;5113066;28;20255;-78
2022/09/05 05:46:15;;;;;;;1.30;1.20;;;;;;;;;;5112961;28;20203;-78
2022/09/05 05:48:43;;;;;;;1.10;1.10;;;;;;;;;;5113018;28;20287;-78
2022/09/05 05:51:36;;;;;;;1.23;1.13;;;;;;;;;;5113392;28;20206;-78
2022/09/05 05:54:10;;;;;;;1.40;1.30;;;;;;;;;;5101544;28;20325;-78
2022/09/05 05:57:09;;;;;;;1.33;1.23;;;;;;;;;;5112616;28;20230;-78
2022/09/05 05:59:53;;;;;;;1.63;1.53;;;;;;;;;;5042471;28;20215;-78
2022/09/05 06:03:04;;;;;;;1.30;1.20;;;;;;;;;;5112698;28;20230;-78
2022/09/05 06:05:41;;;;;;;1.00;1.00;;;;;;;;;;5112405;28;20199;-78
2022/09/05 06:08:31;;;;;;;0.97;0.97;;;;;;;;;;5113006;28;20211;-78
2022/09/05 06:11:23;;;;;;;1.07;1.00;;;;;;;;;;5112543;28;20210;-79
2022/09/05 06:14:32;;;;;;;1.10;1.10;;;;;;;;;;5112396;28;20260;-78
2022/09/05 06:17:21;;;;;;;1.10;1.10;;;;;;;;;;5104244;28;20202;-78
2022/09/05 06:20:01;;;;;;;1.37;1.27;;;;;;;;;;5112856;28;20196;-78
2022/09/05 06:22:55;;;;;;;1.60;1.37;;;;;;;;;;5112177;28;20233;-78
2022/09/05 06:25:56;;;;;;;1.50;1.40;;;;;;;;;;5081547;28;20218;-78
2022/09/05 06:28:29;;;;;;;1.40;1.30;;;;;;;;;;5039195;28;20204;-78
2022/09/05 06:31:14;;;;;;;1.60;1.50;;;;;;;;;;5106880;28;20207;-78
2022/09/05 06:33:52;;;;;;;1.10;1.10;;;;;;;;;;5111986;28;20261;-78
2022/09/05 06:36:30;;;;;;;1.17;1.17;;;;;;;;;;5112190;28;20199;-78
2022/09/05 06:39:07;;;;;;;0.77;0.77;;;;;;;;;;5112160;28;20211;-78
2022/09/05 06:41:41;;;;;;;1.63;1.40;;;;;;;;;;5112210;28;20234;-78
2022/09/05 06:44:21;;;;;;;1.70;1.17;;;;;;;;;;5110915;28;20260;-78
2022/09/05 06:46:50;;;;;;;0.70;0.70;;;;;;;;;;5111848;28;20215;-77
2022/09/05 06:49:20;;;;;;;1.20;1.20;;;;;;;;;;5112414;28;20228;-78
2022/09/05 06:52:19;;;;;;;1.30;1.30;;;;;;;;;;5112203;28;20203;-77
2022/09/05 06:55:24;;;;;;;1.37;1.03;;;;;;;;;;5111376;28;20195;-77
2022/09/05 06:58:37;;;;;;;1.27;1.17;;;;;;;;;;5049004;28;20202;-77
2022/09/05 07:01:05;;;;;;;1.17;1.07;;;;;;;;;;5048953;28;20237;-77
2022/09/05 07:03:46;;;;;;;0.80;0.80;;;;;;;;;;5099165;28;20219;-78
2022/09/05 07:06:23;;;;;;;2.17;2.07;;;;;;;;;;5111571;28;20291;-77
2022/09/05 07:08:52;;;;;;;0.90;0.90;;;;;;;;;;5111549;28;20202;-77
2022/09/05 07:11:21;;;;;;;0.80;0.80;;;;;;;;;;5111713;28;20200;-78
2022/09/05 07:13:55;;;;;;;1.00;1.00;;;;;;;;;;5111128;28;20253;-77
2022/09/05 07:16:25;;;;;;;1.20;1.10;;;;;;;;;;5097800;28;20308;-78
2022/09/05 07:19:00;;;;;;;3.47;1.00;;;;;;;;;;5111181;28;21000;-78
2022/09/05 07:21:34;;;;;;;1.13;1.03;;;;;;;;;;5111487;28;20203;-78
2022/09/05 07:24:03;;;;;;;1.80;1.23;;;;;;;;;;5111070;28;20338;-77
2022/09/05 07:26:33;;;;;;;1.30;1.20;;;;;;;;;;5111107;28;20209;-77
2022/09/05 07:29:03;;;;;;;1.73;1.50;;;;;;;;;;5111411;28;20195;-78
2022/09/05 07:31:33;;;;;;;1.00;0.70;;;;;;;;;;5111133;28;20613;-78
2022/09/05 07:34:09;;;;;;;0.90;0.90;;;;;;;;;;5111113;28;20200;-78
2022/09/05 07:36:40;;;;;;;0.97;0.97;;;;;;;;;;5110820;28;20230;-78
2022/09/05 07:39:08;;;;;;;1.00;1.00;;;;;;;;;;5111037;28;20199;-78
2022/09/05 07:41:38;;;;;;;1.17;1.07;;;;;;;;;;5110860;28;20273;-78
2022/09/05 07:44:09;;;;;;;1.00;1.00;;;;;;;;;;5111201;28;20294;-77
2022/09/05 07:46:38;;;;;;;1.17;1.07;;;;;;;;;;5110776;28;20612;-78
2022/09/05 07:49:06;;;;;;;1.00;0.97;;;;;;;;;;5100603;28;20211;-78
2022/09/05 07:51:35;;;;;;;0.80;0.80;;;;;;;;;;5107050;28;20212;-77
2022/09/05 07:54:06;;;;;;;0.90;0.90;;;;;;;;;;5110718;28;20196;-77
2022/09/05 07:56:43;;;;;;;1.23;1.13;;;;;;;;;;5110487;28;20666;-78
2022/09/05 07:59:12;;;;;;;0.83;0.83;;;;;;;;;;5110521;28;20222;-77
2022/09/05 08:01:43;;;;;;;0.90;0.90;;;;;;;;;;5110593;28;20206;-77
2022/09/05 08:04:23;;;;;;;1.10;0.90;;;;;;;;;;5110907;28;20199;-78
2022/09/05 08:06:52;;;;;;;0.83;0.83;;;;;;;;;;5110592;28;20195;-78
2022/09/05 08:09:24;;;;;;;0.93;0.93;;;;;;;;;;5110702;28;20693;-78
2022/09/05 08:11:54;;;;;;;0.90;0.90;;;;;;;;;;5110777;28;20565;-77
2022/09/05 08:14:34;;;;;;;1.00;1.00;;;;;;;;;;5110288;28;20203;-78
2022/09/05 08:17:00;;;;;;;1.00;1.00;;;;;;;;;;5111085;28;20627;-78
2022/09/05 08:19:41;;;;;;;1.00;1.00;;;;;;;;;;5110520;28;20638;-77
2022/09/05 08:22:13;;;;;;;0.90;0.90;;;;;;;;;;5110864;28;20223;-78
2022/09/05 08:24:46;;;;;;;0.80;0.80;;;;;;;;;;5110203;28;20199;-77
2022/09/05 08:27:16;;;;;;;0.70;0.70;;;;;;;;;;5110457;28;20729;-78
2022/09/05 08:29:45;;;;;;;0.80;0.80;;;;;;;;;;5110425;28;20199;-77
2022/09/05 08:32:13;;;;;;;0.80;0.80;;;;;;;;;;5110853;28;20253;-77
2022/09/05 08:34:43;;;;;;;0.87;0.87;;;;;;;;;;5110378;28;20196;-77
2022/09/05 08:37:12;;;;;;;0.73;0.73;;;;;;;;;;5110358;28;20286;-77
2022/09/05 08:39:42;;;;;;;1.57;1.20;;;;;;;;;;5110229;28;20286;-78
2022/09/05 08:42:23;;;;;;;1.30;1.20;;;;;;;;;;5110738;28;20227;-77
2022/09/05 08:45:01;;;;;;;0.80;0.80;;;;;;;;;;5110266;28;20290;-78
2022/09/05 08:47:35;;;;;;;0.90;0.90;;;;;;;;;;5110043;28;20282;-78
2022/09/05 08:50:28;;;;;;;0.80;0.80;;;;;;;;;;5110125;28;20195;-78
2022/09/05 08:53:02;;;;;;;0.93;0.93;;;;;;;;;;5091384;28;20203;-78
2022/09/05 08:55:39;;;;;;;0.77;0.77;;;;;;;;;;5110219;28;20210;-78
2022/09/05 08:58:37;;;;;;;0.97;0.97;;;;;;;;;;5110031;28;20572;-77
2022/09/05 09:01:13;;;;;;;0.70;0.70;;;;;;;;;;5109865;28;20195;-77
2022/09/05 09:03:58;;;;;;;0.80;0.80;;;;;;;;;;5109869;28;20223;-78
2022/09/05 09:07:02;;;;;;;1.37;1.27;;;;;;;;;;5110970;28;20211;-77
2022/09/05 09:09:35;;;;;;;0.73;0.73;;;;;;;;;;5108636;28;20211;-78
2022/09/05 09:12:14;;;;;;;0.77;0.77;;;;;;;;;;5113743;28;20697;-78
2022/09/05 09:14:51;;;;;;;0.80;0.80;;;;;;;;;;5113541;28;20199;-78
2022/09/05 09:17:25;;;;;;;1.10;1.10;;;;;;;;;;5113893;28;20200;-78
2022/09/05 09:20:08;;;;;;;1.20;1.10;;;;;;;;;;5113636;28;20684;-78
2022/09/05 09:22:41;;;;;;;0.93;0.83;;;;;;;;;;5113680;28;20219;-77
2022/09/05 09:25:10;;;;;;;0.70;0.70;;;;;;;;;;5113100;28;20202;-77
2022/09/05 09:27:56;;;;;;;0.90;0.90;;;;;;;;;;5113592;28;20208;-78
2022/09/05 09:30:25;;;;;;;1.47;0.93;;;;;;;;;;5113463;28;20229;-78
2022/09/05 09:32:54;;;;;;;0.80;0.80;;;;;;;;;;5113284;28;20200;-78
2022/09/05 09:35:24;;;;;;;0.80;0.80;;;;;;;;;;5113236;28;20203;-78
2022/09/05 09:38:24;;;;;;;0.60;0.60;;;;;;;;;;5113512;28;20203;-78
2022/09/05 09:41:12;;;;;;;0.90;0.90;;;;;;;;;;5113494;28;20199;-78
2022/09/05 09:44:15;;;;;;;1.00;1.00;;;;;;;;;;5112647;28;20230;-77
2022/09/05 09:49:51;;;;;;;0.87;0.87;;;;;;;;;;5113010;28;20761;-78
2022/09/05 09:52:53;;;;;;;0.73;0.73;;;;;;;;;;5112865;28;20208;-78
2022/09/05 09:55:39;;;;;;;1.30;0.97;;;;;;;;;;5094698;28;20202;-78
2022/09/05 09:58:20;;;;;;;0.77;0.77;;;;;;;;;;5113132;28;20211;-78
2022/09/05 10:00:51;;;;;;;1.93;0.90;;;;;;;;;;5110892;28;20227;-78
2022/09/05 10:03:50;;;;;;;1.30;0.80;;;;;;;;;;5112834;28;20319;-78
2022/09/05 10:07:02;;;;;;;0.70;0.70;;;;;;;;;;5112953;28;20210;-78
2022/09/05 10:09:58;;;;;;;0.73;0.73;;;;;;;;;;5066529;28;20203;-78
2022/09/05 10:12:38;;;;;;;0.83;0.83;;;;;;;;;;5112668;28;20200;-78
2022/09/05 10:15:20;;;;;;;0.60;0.60;;;;;;;;;;5112317;28;20234;-78
2022/09/05 10:18:10;;;;;;;0.60;0.60;;;;;;;;;;5112562;28;20199;-78
2022/09/05 10:20:58;;;;;;;0.82;0.82;;;;;;;;;;5109834;28;20203;-78
2022/09/05 10:23:48;;;;;;;0.90;0.90;;;;;;;;;;5112155;28;20749;-78
2022/09/05 10:27:11;;;;;;;0.97;0.97;;;;;;;;;;5112331;28;20199;-78
2022/09/05 10:29:45;;;;;;;1.10;1.00;;;;;;;;;;5009429;28;20204;-77
2022/09/05 10:32:17;;;;;;;1.00;1.00;;;;;;;;;;5086832;28;20578;-78
2022/09/05 10:34:47;;;;;;;0.83;0.83;;;;;;;;;;5112313;28;20195;-78
2022/09/05 10:37:14;;;;;;;0.90;0.90;;;;;;;;;;5112280;28;20627;-78
2022/09/05 10:39:45;;;;;;;0.73;0.73;;;;;;;;;;5111774;28;20598;-78
2022/09/05 10:42:15;;;;;;;0.82;0.82;;;;;;;;;;5112592;28;20195;-78
2022/09/05 10:44:46;;;;;;;1.00;1.00;;;;;;;;;;5111683;28;20219;-78
2022/09/05 10:47:31;;;;;;;0.80;0.80;;;;;;;;;;5094538;28;20287;-79
2022/09/05 10:50:06;;;;;;;0.70;0.70;;;;;;;;;;5111410;28;20677;-79
2022/09/05 10:52:36;;;;;;;0.67;0.67;;;;;;;;;;5111785;28;20202;-78
2022/09/05 10:55:10;;;;;;;0.77;0.77;;;;;;;;;;5111602;28;20199;-78
2022/09/05 10:57:43;;;;;;;0.77;0.70;;;;;;;;;;5111976;28;20195;-78
2022/09/05 11:00:32;;;;;;;0.77;0.77;;;;;;;;;;5111407;28;20234;-78
2022/09/05 11:03:00;;;;;;;0.70;0.70;;;;;;;;;;5111390;28;20216;-78
2022/09/05 11:05:28;;;;;;;0.70;0.70;;;;;;;;;;5111650;28;20286;-79
2022/09/05 11:08:06;;;;;;;0.77;0.77;;;;;;;;;;5111509;28;20199;-78
2022/09/05 11:10:37;;;;;;;0.80;0.80;;;;;;;;;;5111585;28;20222;-78
2022/09/05 11:13:20;;;;;;;0.43;0.43;;;;;;;;;;5111499;28;20643;-78
2022/09/05 11:15:59;;;;;;;0.70;0.70;;;;;;;;;;5111677;28;20571;-78
2022/09/05 11:18:51;;;;;;;0.65;0.65;;;;;;;;;;5111292;28;20673;-78
2022/09/05 11:21:22;;;;;;;0.85;0.70;;;;;;;;;;5111387;28;20203;-78
2022/09/05 11:23:54;;;;;;;0.80;0.80;;;;;;;;;;5111026;28;20227;-78
2022/09/05 11:26:30;;;;;;;0.75;0.75;;;;;;;;;;5111386;28;20187;-78
2022/09/05 11:29:02;;;;;;;0.80;0.80;;;;;;;;;;5110625;28;20226;-78
2022/09/05 11:31:38;;;;;;;0.75;0.70;;;;;;;;;;5111237;28;20586;-78
2022/09/05 11:34:32;;;;;;;0.60;0.60;;;;;;;;;;5111315;28;20214;-78
2022/09/05 11:37:01;;;;;;;0.80;0.80;;;;;;;;;;5108033;28;20195;-78
2022/09/05 11:39:57;;;;;;;0.60;0.60;;;;;;;;;;5110773;28;20294;-78
2022/09/05 11:42:43;;;;;;;0.57;0.55;;;;;;;;;;5110915;28;20206;-78
2022/09/05 11:45:41;;;;;;;0.80;0.80;;;;;;;;;;5110893;28;20692;-78
2022/09/05 11:48:22;;;;;;;0.73;0.73;;;;;;;;;;5064744;28;20208;-79
2022/09/05 11:51:25;;;;;;;0.70;0.70;;;;;;;;;;5110528;28;20203;-78
2022/09/05 11:54:18;;;;;;;0.90;0.90;;;;;;;;;;5107956;28;20221;-78
2022/09/05 11:57:03;;;;;;;0.80;0.80;;;;;;;;;;5111106;28;20199;-78
2022/09/05 11:59:53;;;;;;;0.75;0.75;;;;;;;;;;5110582;28;20626;-79
2022/09/05 12:02:31;;;;;;;0.80;0.80;;;;;;;;;;5092575;28;20215;-79
2022/09/05 12:05:13;;;;;;;0.80;0.80;;;;;;;;;;5110805;28;20246;-79
2022/09/05 12:07:48;;;;;;;1.20;1.10;;;;;;;;;;5110745;28;20582;-78
2022/09/05 12:10:28;;;;;;;0.65;0.65;;;;;;;;;;5110984;28;20643;-78
2022/09/05 12:13:06;;;;;;;0.60;0.60;;;;;;;;;;5110511;28;20195;-78
2022/09/05 12:15:36;;;;;;;0.88;0.88;;;;;;;;;;5096886;28;20287;-78
2022/09/05 12:18:14;;;;;;;0.90;0.90;;;;;;;;;;5096306;28;20282;-79
2022/09/05 12:20:46;;;;;;;0.70;0.70;;;;;;;;;;5110701;28;20209;-78
2022/09/05 12:23:23;;;;;;;1.00;1.00;;;;;;;;;;5110453;28;20214;-79
2022/09/05 12:25:56;;;;;;;0.98;0.98;;;;;;;;;;5110611;28;20203;-78
2022/09/05 12:28:26;;;;;;;0.80;0.80;;;;;;;;;;5110256;28;20203;-78
2022/09/05 12:31:14;;;;;;;1.00;0.90;;;;;;;;;;5110639;28;20199;-79
2022/09/05 12:33:44;;;;;;;0.80;0.80;;;;;;;;;;5099158;28;20730;-78
2022/09/05 12:36:13;;;;;;;0.75;0.75;;;;;;;;;;5110424;28;20207;-79
2022/09/05 12:38:45;;;;;;;0.60;0.60;;;;;;;;;;5110222;28;20203;-78
2022/09/05 12:41:16;;;;;;;0.70;0.70;;;;;;;;;;5110762;28;20211;-79
2022/09/05 12:43:46;;;;;;;0.80;0.80;;;;;;;;;;5114234;28;20222;-78
2022/09/05 12:46:20;;;;;;;0.73;0.73;;;;;;;;;;5114578;28;20257;-78
2022/09/05 12:48:56;;;;;;;0.88;0.85;;;;;;;;;;5114309;28;20196;-78
2022/09/05 12:51:25;;;;;;;0.90;0.90;;;;;;;;;;5114065;28;20207;-79
2022/09/05 12:53:55;;;;;;;0.70;0.70;;;;;;;;;;5114225;28;20208;-78
2022/09/05 12:56:29;;;;;;;0.90;0.90;;;;;;;;;;5114561;28;20199;-78
2022/09/05 12:58:56;;;;;;;1.15;1.08;;;;;;;;;;5113930;28;20235;-78
2022/09/05 13:01:30;;;;;;;1.05;1.05;;;;;;;;;;5113803;28;20204;-79
2022/09/05 13:04:01;;;;;;;1.17;1.08;;;;;;;;;;5113542;28;20574;-78
2022/09/05 13:06:32;;;;;;;0.90;0.90;;;;;;;;;;5114202;28;20246;-78
2022/09/05 13:09:03;;;;;;;0.68;0.68;;;;;;;;;;5113931;28;20203;-78
2022/09/05 13:11:39;;;;;;;0.88;0.88;;;;;;;;;;5113927;28;20203;-79
2022/09/05 13:14:12;;;;;;;0.70;0.70;;;;;;;;;;5113752;28;20196;-78
2022/09/05 13:16:46;;;;;;;0.70;0.70;;;;;;;;;;5114137;28;20199;-79
2022/09/05 13:19:27;;;;;;;1.17;0.80;;;;;;;;;;5113624;28;20205;-80
2022/09/05 13:21:56;;;;;;;0.98;0.98;;;;;;;;;;5113384;28;20702;-78
2022/09/05 13:24:26;;;;;;;0.90;0.90;;;;;;;;;;5113423;28;20230;-78
2022/09/05 13:26:56;;;;;;;1.05;0.98;;;;;;;;;;5113511;28;20200;-78
2022/09/05 13:29:27;;;;;;;1.10;1.00;;;;;;;;;;5113649;28;20226;-79
2022/09/05 13:32:08;;;;;;;0.88;0.88;;;;;;;;;;5113374;28;20204;-79
2022/09/05 13:34:39;;;;;;;0.82;0.82;;;;;;;;;;5113543;28;20736;-78
2022/09/05 13:37:10;;;;;;;0.93;0.93;;;;;;;;;;5113379;28;20195;-78
2022/09/05 13:39:50;;;;;;;0.60;0.60;;;;;;;;;;5113099;28;20227;-78
2022/09/05 13:42:19;;;;;;;1.42;1.33;;;;;;;;;;5113574;28;20203;-78
2022/09/05 13:44:50;;;;;;;0.73;0.73;;;;;;;;;;5113031;28;20227;-77
2022/09/05 13:47:30;;;;;;;1.00;1.00;;;;;;;;;;5113346;28;20199;-78
2022/09/05 13:50:12;;;;;;;0.90;0.90;;;;;;;;;;5112573;28;20207;-78
2022/09/05 13:52:42;;;;;;;1.00;1.00;;;;;;;;;;5113126;28;20210;-78
2022/09/05 13:55:19;;;;;;;0.90;0.90;;;;;;;;;;5112762;28;20751;-78
2022/09/05 13:57:49;;;;;;;0.77;0.77;;;;;;;;;;5112784;28;20696;-78
2022/09/05 14:00:38;;;;;;;0.90;0.90;;;;;;;;;;5112564;28;20239;-78
2022/09/05 14:03:34;;;;;;;0.73;0.73;;;;;;;;;;5101783;28;20204;-78
2022/09/05 14:06:19;;;;;;;0.80;0.80;;;;;;;;;;5112866;28;20207;-78
2022/09/05 14:08:53;;;;;;;1.00;1.00;;;;;;;;;;5112538;28;20290;-78
2022/09/05 14:11:45;;;;;;;0.93;0.93;;;;;;;;;;5113011;28;20257;-78
2022/09/05 14:14:18;;;;;;;0.80;0.80;;;;;;;;;;5112656;28;20199;-78
2022/09/05 14:16:54;;;;;;;1.05;1.05;;;;;;;;;;5112497;28;20219;-78
2022/09/05 14:22:08;;;;;;;0.82;0.82;;;;;;;;;;5113049;28;20697;-78
2022/09/05 14:24:37;;;;;;;0.88;0.88;;;;;;;;;;5112422;28;20751;-77
2022/09/05 14:27:12;;;;;;;0.95;0.95;;;;;;;;;;5112640;28;20207;-78
2022/09/05 14:29:44;;;;;;;0.80;0.80;;;;;;;;;;5112514;28;20632;-78
2022/09/05 14:32:43;;;;;;;0.77;0.77;;;;;;;;;;5112372;28;20701;-78
2022/09/05 14:35:14;;;;;;;0.80;0.80;;;;;;;;;;5109869;28;20203;-77
2022/09/05 14:37:48;;;;;;;0.88;0.88;;;;;;;;;;5111875;28;20672;-78
2022/09/05 14:40:52;;;;;;;1.00;1.00;;;;;;;;;;5099072;28;20214;-78
2022/09/05 14:43:42;;;;;;;0.77;0.77;;;;;;;;;;5112128;28;20206;-78
2022/09/05 14:46:35;;;;;;;0.90;0.90;;;;;;;;;;5109227;28;20596;-78
2022/09/05 14:49:17;;;;;;;0.60;0.60;;;;;;;;;;5101033;28;20677;-78
2022/09/05 14:51:46;;;;;;;0.90;0.90;;;;;;;;;;5112051;28;20204;-79
2022/09/05 14:54:15;;;;;;;0.60;0.60;;;;;;;;;;5111402;28;20248;-78
2022/09/05 14:56:44;;;;;;;0.90;0.90;;;;;;;;;;5111987;28;20199;-78
2022/09/05 14:59:22;;;;;;;0.73;0.70;;;;;;;;;;5097195;28;20219;-78
2022/09/05 15:01:54;;;;;;;0.87;0.87;;;;;;;;;;5111895;28;20199;-77
2022/09/05 15:04:23;;;;;;;0.83;0.83;;;;;;;;;;5110571;28;20223;-78
2022/09/05 15:07:18;;;;;;;1.00;1.00;;;;;;;;;;5111452;28;20200;-77
2022/09/05 15:09:45;;;;;;;1.03;1.03;;;;;;;;;;5093118;28;20196;-77
2022/09/05 15:12:16;;;;;;;0.87;0.87;;;;;;;;;;5108959;28;20202;-77
2022/09/05 15:15:09;;;;;;;1.00;1.00;;;;;;;;;;5087211;28;20609;-77
2022/09/05 15:17:37;;;;;;;0.70;0.70;;;;;;;;;;5103183;28;20578;-78
2022/09/05 15:20:06;;;;;;;0.73;0.73;;;;;;;;;;5110486;28;20207;-78
2022/09/05 15:22:35;;;;;;;0.67;0.67;;;;;;;;;;5108039;28;20192;-78
2022/09/05 15:25:15;;;;;;;0.80;0.80;;;;;;;;;;5103826;28;20230;-77
2022/09/05 15:27:42;;;;;;;1.00;1.00;;;;;;;;;;5111204;28;20227;-78
2022/09/05 15:30:16;;;;;;;0.90;0.90;;;;;;;;;;5110739;28;20203;-78
2022/09/05 15:32:44;;;;;;;0.70;0.70;;;;;;;;;;5111407;28;20190;-79
2022/09/05 15:35:16;;;;;;;1.30;1.30;;;;;;;;;;5110439;28;20235;-79
2022/09/05 15:37:44;;;;;;;0.87;0.87;;;;;;;;;;5110923;28;20226;-79
2022/09/05 15:40:13;;;;;;;0.77;0.77;;;;;;;;;;5110543;28;20203;-79
2022/09/05 15:42:42;;;;;;;0.70;0.70;;;;;;;;;;5111154;28;20282;-78
2022/09/05 15:45:11;;;;;;;1.00;1.00;;;;;;;;;;5109945;28;20227;-79
2022/09/05 15:47:43;;;;;;;0.87;0.87;;;;;;;;;;5111211;28;20215;-79
2022/09/05 15:50:11;;;;;;;0.97;0.90;;;;;;;;;;5111133;28;20199;-79
2022/09/05 15:52:41;;;;;;;2.63;0.83;;;;;;;;;;5110951;28;20226;-79